createdAt,value
2022-09-03T00:00:14.617Z,98076.72
2022-09-03T00:03:58.154Z,98086.41
2022-09-03T00:07:04.490Z,98087.56
2022-09-03T00:10:09.524Z,98077.88
2022-09-03T00:13:15.920Z,98080.84
2022-09-03T00:16:19.708Z,98072.06
2022-09-03T00:19:31.106Z,98080.44
2022-09-03T00:23:05.959Z,98079.72
2022-09-03T00:26:17.871Z,98065.75
2022-09-03T00:29:24.331Z,98068.28
2022-09-03T00:32:47.775Z,98064.16
2022-09-03T00:36:02.258Z,98062.41
2022-09-03T00:39:04.831Z,98060.69
2022-09-03T00:42:12.385Z,98065.03
2022-09-03T00:45:33.923Z,98066.38
2022-09-03T00:49:20.540Z,98071.78
2022-09-03T00:52:23.156Z,98074.53
2022-09-03T00:55:49.771Z,98081.53
2022-09-03T00:59:01.641Z,98081.72
2022-09-03T01:02:15.957Z,98081.09
2022-09-03T01:05:41.916Z,98079.25
2022-09-03T01:09:10.301Z,98086.06
2022-09-03T01:12:38.333Z,98077.44
2022-09-03T01:16:05.739Z,98085.06
2022-09-03T01:19:25.470Z,98082.28
2022-09-03T01:22:44.553Z,98079.22
2022-09-03T01:26:11.129Z,98086.41
2022-09-03T01:29:28.405Z,98092.69
2022-09-03T01:33:02.854Z,98096.13
2022-09-03T01:36:20.605Z,98089.03
2022-09-03T01:39:44.364Z,98083.69
2022-09-03T01:43:11.265Z,98098.19
2022-09-03T01:46:17.472Z,98088.59
2022-09-03T01:49:26.006Z,98094.03
2022-09-03T01:52:46.554Z,98089.63
2022-09-03T01:55:58.343Z,98091.44
2022-09-03T01:59:09.831Z,98085.97
2022-09-03T02:02:21.281Z,98094.72
2022-09-03T02:05:24.838Z,98087.03
2022-09-03T02:08:26.495Z,98099.34
2022-09-03T02:11:28.044Z,98098.56
2022-09-03T02:14:29.672Z,98100.25
2022-09-03T02:17:32.133Z,98088.69
2022-09-03T02:20:33.721Z,98084.34
2022-09-03T02:23:35.246Z,98090.94
2022-09-03T02:26:36.751Z,98093.50
2022-09-03T02:29:38.331Z,98075.16
2022-09-03T02:32:39.870Z,98079.94
2022-09-03T02:35:42.031Z,98079.16
2022-09-03T02:38:43.584Z,98085.34
2022-09-03T02:41:45.735Z,98081.88
2022-09-03T02:44:52.107Z,98084.31
2022-09-03T02:47:56.210Z,98086.72
2022-09-03T02:50:57.723Z,98077.00
2022-09-03T02:53:59.236Z,98086.72
2022-09-03T02:57:00.770Z,98096.34
2022-09-03T03:00:02.507Z,98098.38
2022-09-03T03:03:04.755Z,98106.97
2022-09-03T03:06:06.976Z,98108.41
2022-09-03T03:09:08.530Z,98105.72
2022-09-03T03:12:10.349Z,98112.59
2022-09-03T03:15:11.866Z,98107.25
2022-09-03T03:18:14.044Z,98100.84
2022-09-03T03:21:15.906Z,98113.75
2022-09-03T03:24:17.421Z,98110.22
2022-09-03T03:27:19.006Z,98113.13
2022-09-03T03:30:20.953Z,98094.75
2022-09-03T03:33:22.533Z,98100.19
2022-09-03T03:36:27.218Z,98116.09
2022-09-03T03:39:28.788Z,98108.75
2022-09-03T03:42:33.610Z,98102.47
2022-09-03T03:45:35.418Z,98101.50
2022-09-03T03:48:38.539Z,98092.66
2022-09-03T03:51:40.803Z,98095.31
2022-09-03T03:54:42.456Z,98096.84
2022-09-03T03:57:44.286Z,98096.56
2022-09-03T04:00:47.991Z,98090.31
2022-09-03T04:03:49.504Z,98105.09
2022-09-03T04:06:51.025Z,98110.44
2022-09-03T04:09:52.539Z,98102.69
2022-09-03T04:12:54.547Z,98104.41
2022-09-03T04:16:01.983Z,98100.00
2022-09-03T04:19:03.537Z,98099.31
2022-09-03T04:22:05.043Z,98095.88
2022-09-03T04:25:06.808Z,98090.53
2022-09-03T04:28:08.346Z,98079.97
2022-09-03T04:31:10.941Z,98079.88
2022-09-03T04:34:13.351Z,98071.09
2022-09-03T04:37:16.457Z,98073.81
2022-09-03T04:40:17.970Z,98075.47
2022-09-03T04:43:19.484Z,98073.63
2022-09-03T04:46:21.766Z,98074.31
2022-09-03T04:49:25.001Z,98062.91
2022-09-03T04:52:29.959Z,98068.97
2022-09-03T04:55:35.536Z,98071.69
2022-09-03T04:58:37.065Z,98078.75
2022-09-03T05:01:40.319Z,98072.41
2022-09-03T05:04:42.469Z,98078.25
2022-09-03T05:07:43.999Z,98078.09
2022-09-03T05:10:45.514Z,98085.00
2022-09-03T05:13:48.682Z,98078.97
2022-09-03T05:16:53.204Z,98074.63
2022-09-03T05:19:54.908Z,98079.69
2022-09-03T05:22:57.113Z,98082.53
2022-09-03T05:25:59.106Z,98077.16
2022-09-03T05:29:01.815Z,98078.81
2022-09-03T05:32:04.088Z,98076.13
2022-09-03T05:35:06.544Z,98071.56
2022-09-03T05:38:09.715Z,98076.03
2022-09-03T05:41:12.217Z,98076.69
2022-09-03T05:44:14.614Z,98072.25
2022-09-03T05:47:16.489Z,98060.66
2022-09-03T05:50:18.599Z,98065.94
2022-09-03T05:53:20.045Z,98066.84
2022-09-03T05:56:23.151Z,98067.53
2022-09-03T05:59:24.667Z,98072.75
2022-09-03T06:02:26.315Z,98072.28
2022-09-03T06:05:27.905Z,98070.16
2022-09-03T06:08:29.437Z,98068.88
2022-09-03T06:11:31.845Z,98071.16
2022-09-03T06:14:33.429Z,98070.38
2022-09-03T06:17:34.900Z,98069.38
2022-09-03T06:20:37.352Z,98071.16
2022-09-03T06:23:39.023Z,98074.75
2022-09-03T06:26:43.000Z,98074.41
2022-09-03T06:29:44.863Z,98074.94
2022-09-03T06:32:46.875Z,98073.78
2022-09-03T06:35:48.259Z,98080.75
2022-09-03T06:38:52.404Z,98072.44
2022-09-03T06:41:55.068Z,98071.41
2022-09-03T06:44:57.511Z,98078.72
2022-09-03T06:47:59.046Z,98083.44
2022-09-03T06:51:11.399Z,98082.97
2022-09-03T06:54:13.192Z,98082.66
2022-09-03T06:57:14.693Z,98086.84
2022-09-03T07:00:16.515Z,98100.72
2022-09-03T07:03:19.052Z,98102.03
2022-09-03T07:06:21.733Z,98099.50
2022-09-03T07:09:23.270Z,98096.56
2022-09-03T07:12:24.755Z,98099.78
2022-09-03T07:15:26.374Z,98096.19
2022-09-03T07:18:27.956Z,98092.19
2022-09-03T07:21:29.883Z,98093.22
2022-09-03T07:24:31.401Z,98090.91
2022-09-03T07:27:35.098Z,98093.06
2022-09-03T07:30:36.614Z,98110.31
2022-09-03T07:33:39.246Z,98107.16
2022-09-03T07:36:45.624Z,98114.97
2022-09-03T07:39:47.194Z,98130.22
2022-09-03T07:42:52.057Z,98133.22
2022-09-03T07:45:57.109Z,98132.84
2022-09-03T07:48:59.097Z,98140.16
2022-09-03T07:52:01.261Z,98135.09
2022-09-03T07:55:04.835Z,98144.59
2022-09-03T07:58:07.411Z,98149.69
2022-09-03T08:01:13.207Z,98155.81
2022-09-03T08:04:15.489Z,98157.09
2022-09-03T08:07:17.016Z,98148.44
2022-09-03T08:10:18.531Z,98121.56
2022-09-03T08:13:20.056Z,98118.66
2022-09-03T08:16:21.597Z,98118.28
2022-09-03T08:19:23.260Z,98129.69
2022-09-03T08:22:25.533Z,98138.03
2022-09-03T08:25:27.064Z,98132.47
2022-09-03T08:28:28.703Z,98146.16
2022-09-03T08:31:30.410Z,98136.94
2022-09-03T08:34:32.399Z,98144.06
2022-09-03T08:37:33.914Z,98159.69
2022-09-03T08:40:37.480Z,98176.22
2022-09-03T08:44:06.630Z,98181.56
2022-09-03T08:47:23.319Z,98188.28
2022-09-03T08:50:37.276Z,98188.91
2022-09-03T08:53:45.604Z,98194.25
2022-09-03T08:56:47.589Z,98201.06
2022-09-03T08:59:51.308Z,98217.81
2022-09-03T09:02:52.777Z,98210.81
2022-09-03T09:06:30.261Z,98218.78
2022-09-03T09:09:44.260Z,98226.94
2022-09-03T09:13:05.061Z,98233.09
2022-09-03T09:16:27.729Z,98236.69
2022-09-03T09:19:39.421Z,98219.03
2022-09-03T09:22:41.878Z,98216.13
2022-09-03T09:25:50.123Z,98220.78
2022-09-03T09:29:11.916Z,98209.75
2022-09-03T09:32:13.456Z,98214.94
2022-09-03T09:35:15.859Z,98212.81
2022-09-03T09:38:27.646Z,98208.03
2022-09-03T09:41:30.041Z,98200.84
2022-09-03T09:44:31.616Z,98202.28
2022-09-03T09:47:35.907Z,98204.72
2022-09-03T09:50:37.539Z,98203.16
2022-09-03T09:53:39.491Z,98209.13
2022-09-03T09:56:42.106Z,98201.25
2022-09-03T09:59:43.766Z,98211.97
2022-09-03T10:02:52.001Z,98213.22
2022-09-03T10:06:22.386Z,98216.34
2022-09-03T10:09:31.623Z,98221.66
2022-09-03T10:12:43.409Z,98219.41
2022-09-03T10:16:28.075Z,98215.53
2022-09-03T10:19:36.781Z,98215.78
2022-09-03T10:22:56.510Z,98221.69
2022-09-03T10:26:08.195Z,98216.91
2022-09-03T10:29:09.720Z,98229.06
2022-09-03T10:32:47.760Z,98225.31
2022-09-03T10:35:53.330Z,98234.41
2022-09-03T10:39:02.393Z,98230.63
2022-09-03T10:42:27.518Z,98243.31
2022-09-03T10:45:48.750Z,98240.78
2022-09-03T10:49:10.999Z,98232.78
2022-09-03T10:52:23.936Z,98227.50
2022-09-03T10:55:25.464Z,98233.38
2022-09-03T10:58:43.401Z,98235.22
2022-09-03T11:01:54.129Z,98227.88
2022-09-03T11:05:03.023Z,98235.69
2022-09-03T11:08:17.551Z,98236.31
2022-09-03T11:11:26.661Z,98233.56
2022-09-03T11:14:38.822Z,98236.50
2022-09-03T11:17:42.787Z,98236.34
2022-09-03T11:20:44.295Z,98248.72
2022-09-03T11:23:47.587Z,98284.13
2022-09-03T11:26:54.270Z,98273.06
2022-09-03T11:30:05.987Z,98267.00
2022-09-03T11:33:09.586Z,98264.78
2022-09-03T11:36:11.744Z,98281.94
2022-09-03T11:39:24.630Z,98272.94
2022-09-03T11:42:36.916Z,98268.06
2022-09-03T11:45:38.966Z,98249.41
2022-09-03T11:48:45.341Z,98253.69
2022-09-03T11:51:59.749Z,98243.19
2022-09-03T11:55:01.303Z,98244.28
2022-09-03T11:58:29.996Z,98250.13
2022-09-03T12:01:31.798Z,98263.41
2022-09-03T12:04:45.795Z,98260.03
2022-09-03T12:08:05.411Z,98268.66
2022-09-03T12:11:48.456Z,98269.34
2022-09-03T12:15:26.993Z,98258.44
2022-09-03T12:18:33.135Z,98262.09
2022-09-03T12:21:38.943Z,98282.47
2022-09-03T12:24:43.065Z,98284.97
2022-09-03T12:27:45.306Z,98273.41
2022-09-03T12:30:46.994Z,98267.31
2022-09-03T12:33:49.565Z,98268.88
2022-09-03T12:36:52.850Z,98268.34
2022-09-03T12:40:11.291Z,98265.94
2022-09-03T12:46:35.742Z,98259.81
2022-09-03T12:49:38.785Z,98261.69
2022-09-03T12:52:43.479Z,98266.97
2022-09-03T12:55:48.106Z,98278.16
2022-09-03T12:58:53.728Z,98272.00
2022-09-03T13:01:56.508Z,98279.03
2022-09-03T13:04:58.043Z,98283.06
2022-09-03T13:08:01.559Z,98286.41
2022-09-03T13:11:04.912Z,98293.28
2022-09-03T13:14:10.107Z,98299.59
2022-09-03T13:17:20.739Z,98284.59
2022-09-03T13:20:43.807Z,98283.31
2022-09-03T13:23:54.123Z,98281.09
2022-09-03T13:27:12.143Z,98274.94
2022-09-03T13:30:19.385Z,98276.13
2022-09-03T13:33:23.149Z,98274.19
2022-09-03T13:36:41.037Z,98271.91
2022-09-03T13:39:47.687Z,98270.88
2022-09-03T13:42:53.335Z,98259.41
2022-09-03T13:46:12.593Z,98264.88
2022-09-03T13:49:42.047Z,98264.31
2022-09-03T13:52:56.879Z,98255.13
2022-09-03T13:56:05.293Z,98261.59
2022-09-03T13:59:17.288Z,98265.56
2022-09-03T14:02:34.525Z,98261.53
2022-09-03T14:06:14.660Z,98259.34
2022-09-03T14:09:26.744Z,98254.22
2022-09-03T14:12:34.281Z,98254.63
2022-09-03T14:15:50.186Z,98246.84
2022-09-03T14:19:02.572Z,98246.22
2022-09-03T14:22:22.448Z,98236.69
2022-09-03T14:25:25.456Z,98242.22
2022-09-03T14:28:34.937Z,98250.34
2022-09-03T14:31:58.398Z,98260.81
2022-09-03T14:35:20.329Z,98251.56
2022-09-03T14:38:40.140Z,98253.69
2022-09-03T14:42:09.473Z,98256.84
2022-09-03T14:45:18.735Z,98250.22
2022-09-03T14:48:42.024Z,98251.97
2022-09-03T14:51:57.250Z,98248.97
2022-09-03T14:55:19.948Z,98251.53
2022-09-03T14:58:33.546Z,98248.09
2022-09-03T15:01:39.277Z,98253.25
2022-09-03T15:04:50.591Z,98244.94
2022-09-03T15:07:53.504Z,98242.03
2022-09-03T15:10:59.852Z,98256.72
2022-09-03T15:14:24.058Z,98254.28
2022-09-03T15:18:11.919Z,98251.50
2022-09-03T15:21:37.876Z,98251.38
2022-09-03T15:25:03.772Z,98243.56
2022-09-03T15:28:06.472Z,98248.19
2022-09-03T15:31:17.151Z,98243.38
2022-09-03T15:34:21.598Z,98245.94
2022-09-03T15:37:34.010Z,98256.28
2022-09-03T15:40:48.923Z,98249.38
2022-09-03T15:43:51.035Z,98264.31
2022-09-03T15:47:13.987Z,98262.97
2022-09-03T15:50:52.649Z,98262.81
2022-09-03T15:53:57.203Z,98254.59
2022-09-03T15:57:14.098Z,98258.50
2022-09-03T16:00:21.533Z,98254.28
2022-09-03T16:03:46.856Z,98259.00
2022-09-03T16:07:06.257Z,98259.59
2022-09-03T16:10:25.039Z,98258.41
2022-09-03T16:13:38.978Z,98251.88
2022-09-03T16:16:55.984Z,98258.88
2022-09-03T16:20:03.890Z,98255.38
2022-09-03T16:23:26.935Z,98252.06
2022-09-03T16:26:43.871Z,98255.59
2022-09-03T16:29:56.127Z,98254.56
2022-09-03T16:33:22.370Z,98252.84
2022-09-03T16:36:32.780Z,98259.53
2022-09-03T16:39:50.410Z,98255.72
2022-09-03T16:43:39.684Z,98255.94
2022-09-03T16:46:55.179Z,98253.88
2022-09-03T16:50:18.603Z,98255.50
2022-09-03T16:53:29.020Z,98253.00
2022-09-03T16:56:55.474Z,98266.19
2022-09-03T17:00:09.057Z,98255.28
2022-09-03T17:03:26.093Z,98257.59
2022-09-03T17:06:47.083Z,98258.50
2022-09-03T17:10:01.553Z,98257.06
2022-09-03T17:13:15.178Z,98260.34
2022-09-03T17:16:44.653Z,98257.34
2022-09-03T17:20:15.456Z,98246.75
2022-09-03T17:23:26.365Z,98259.66
2022-09-03T17:26:48.050Z,98245.50
2022-09-03T17:30:16.393Z,98246.41
2022-09-03T17:33:36.409Z,98254.72
2022-09-03T17:36:38.418Z,98251.81
2022-09-03T17:39:59.425Z,98263.56
2022-09-03T17:43:13.171Z,98265.34
2022-09-03T17:46:31.388Z,98261.09
2022-09-03T17:49:41.165Z,98264.09
2022-09-03T17:52:49.494Z,98268.28
2022-09-03T17:56:02.929Z,98272.88
2022-09-03T17:59:28.649Z,98267.22
2022-09-03T18:02:39.387Z,98272.28
2022-09-03T18:05:46.899Z,98268.97
2022-09-03T18:09:07.300Z,98269.19
2022-09-03T18:12:14.674Z,98279.31
2022-09-03T18:15:27.948Z,98279.53
2022-09-03T18:18:31.332Z,98286.72
2022-09-03T18:21:54.427Z,98298.41
2022-09-03T18:25:16.630Z,98291.50
2022-09-03T18:28:36.626Z,98302.25
2022-09-03T18:31:56.830Z,98300.88
2022-09-03T18:35:16.814Z,98306.38
2022-09-03T18:38:43.259Z,98305.88
2022-09-03T18:42:41.032Z,98304.41
2022-09-03T18:46:46.268Z,98309.88
2022-09-03T18:49:47.055Z,98314.31
2022-09-03T18:53:19.423Z,98321.91
2022-09-03T18:56:45.485Z,98325.31
2022-09-03T19:00:29.331Z,98332.56
2022-09-03T19:04:11.580Z,98330.97
2022-09-03T19:07:53.988Z,98322.31
2022-09-03T19:11:28.217Z,98327.59
2022-09-03T19:14:54.119Z,98348.94
2022-09-03T19:18:26.486Z,98352.22
2022-09-03T19:21:46.413Z,98353.91
2022-09-03T19:25:14.954Z,98361.72
2022-09-03T19:28:42.721Z,98366.31
2022-09-03T19:32:09.961Z,98364.88
2022-09-03T19:35:36.819Z,98359.81
2022-09-03T19:39:28.150Z,98361.75
2022-09-03T19:43:02.275Z,98354.00
2022-09-03T19:46:32.680Z,98359.47
2022-09-03T19:50:18.587Z,98361.47
2022-09-03T19:53:38.571Z,98364.09
2022-09-03T19:56:58.622Z,98372.91
2022-09-03T20:00:29.334Z,98368.94
2022-09-03T20:03:53.178Z,98360.25
2022-09-03T20:07:13.319Z,98369.66
2022-09-03T20:10:24.228Z,98368.78
2022-09-03T20:13:25.798Z,98373.50
2022-09-03T20:16:36.103Z,98361.56
2022-09-03T20:19:48.682Z,98374.00
2022-09-03T20:22:56.023Z,98369.63
2022-09-03T20:26:10.829Z,98372.22
2022-09-03T20:29:40.487Z,98372.31
2022-09-03T20:33:25.821Z,98378.94
2022-09-03T20:36:42.698Z,98375.63
2022-09-03T20:40:07.899Z,98379.91
2022-09-03T20:43:25.815Z,98376.69
2022-09-03T20:46:46.758Z,98380.38
2022-09-03T20:50:04.250Z,98385.06
2022-09-03T20:53:17.986Z,98386.06
2022-09-03T20:56:45.977Z,98397.72
2022-09-03T21:00:12.499Z,98397.75
2022-09-03T21:03:20.080Z,98401.13
2022-09-03T21:06:42.774Z,98409.94
2022-09-03T21:10:17.026Z,98408.38
2022-09-03T21:13:46.339Z,98414.03
2022-09-03T21:16:57.153Z,98415.25
2022-09-03T21:20:07.900Z,98414.41
2022-09-03T21:23:31.820Z,98417.81
2022-09-03T21:26:39.835Z,98419.50
2022-09-03T21:29:52.156Z,98413.31
2022-09-03T21:33:05.046Z,98413.75
2022-09-03T21:36:10.531Z,98423.50
2022-09-03T21:39:20.243Z,98422.66
2022-09-03T21:42:36.465Z,98424.31
2022-09-03T21:45:53.684Z,98423.63
2022-09-03T21:48:58.705Z,98425.34
2022-09-03T21:52:07.353Z,98422.66
2022-09-03T21:55:27.705Z,98429.53
2022-09-03T21:58:57.282Z,98427.94
2022-09-03T22:02:24.481Z,98428.78
2022-09-03T22:05:35.841Z,98440.34
2022-09-03T22:08:45.312Z,98448.34
2022-09-03T22:12:05.172Z,98442.28
2022-09-03T22:15:10.146Z,98458.00
2022-09-03T22:18:23.819Z,98444.00
2022-09-03T22:21:32.239Z,98449.25
2022-09-03T22:24:52.495Z,98451.09
2022-09-03T22:28:09.044Z,98448.00
2022-09-03T22:31:12.704Z,98455.22
2022-09-03T22:34:31.646Z,98456.78
2022-09-03T22:37:54.465Z,98452.75
2022-09-03T22:41:12.122Z,98460.75
2022-09-03T22:44:22.760Z,98452.16
2022-09-03T22:47:45.940Z,98454.13
2022-09-03T22:50:57.909Z,98454.91
2022-09-03T22:54:09.424Z,98454.09
2022-09-03T22:57:11.046Z,98458.63
2022-09-03T23:00:13.062Z,98455.19
2022-09-03T23:03:16.751Z,98452.63
2022-09-03T23:06:26.708Z,98459.53
2022-09-03T23:09:30.322Z,98455.97
2022-09-03T23:12:44.911Z,98465.81
2022-09-03T23:15:52.746Z,98471.22
2022-09-03T23:18:54.348Z,98462.56
2022-09-03T23:22:01.314Z,98467.06
2022-09-03T23:25:15.583Z,98468.88
2022-09-03T23:28:29.854Z,98464.56
2022-09-03T23:31:31.416Z,98468.88
2022-09-03T23:34:33.029Z,98460.13
2022-09-03T23:37:56.492Z,98463.53
2022-09-03T23:40:59.932Z,98471.59
2022-09-03T23:44:07.351Z,98470.78
2022-09-03T23:47:12.188Z,98473.41
2022-09-03T23:50:46.418Z,98469.09
2022-09-03T23:53:58.933Z,98471.81
2022-09-03T23:57:08.461Z,98477.88
